Time;durP1;ratioP1;P1;durP2;ratioP2;P2;SDS_P1;SDS_P2;PMS_P1;PMS_P2;Temp;Humidity;BMP_temperature;BMP_pressure;BME280_temperature;BME280_humidity;BME280_pressure;Samples;Min_cycle;Max_cycle;Signal;HPM_P1;HPM_P2
2022/02/20 00:01:37;;;;;;;8.07;3.13;;;;;;;5.02;54.78;100559.56;5115814;28;20043;-80
2022/02/20 00:04:05;;;;;;;12.63;3.72;;;;;;;5.00;54.62;100557.84;5116390;28;20089;-78
2022/02/20 00:06:35;;;;;;;10.85;3.85;;;;;;;4.85;55.32;100562.72;5097905;28;20100;-79
2022/02/20 00:09:03;;;;;;;9.27;3.80;;;;;;;4.85;55.38;100561.88;5116120;28;20043;-78
2022/02/20 00:11:32;;;;;;;9.38;4.00;;;;;;;4.74;55.69;100558.69;5116190;28;20043;-78
2022/02/20 00:14:00;;;;;;;9.57;4.05;;;;;;;4.68;56.10;100553.59;5097532;28;20565;-78
2022/02/20 00:16:28;;;;;;;8.63;3.78;;;;;;;4.68;56.10;100565.03;5097387;28;20489;-78
2022/02/20 00:18:57;;;;;;;11.80;4.28;;;;;;;4.71;55.87;100564.06;5115579;28;20095;-78
2022/02/20 00:21:25;;;;;;;10.85;4.35;;;;;;;4.71;56.21;100569.34;5115874;28;20078;-78
2022/02/20 00:23:55;;;;;;;9.25;3.55;;;;;;;4.65;55.84;100564.25;5115273;28;20231;-78
2022/02/20 00:26:23;;;;;;;10.43;4.25;;;;;;;4.63;56.24;100568.72;5097546;28;20094;-75
2022/02/20 00:28:51;;;;;;;13.40;3.90;;;;;;;4.50;56.85;100574.38;5097193;28;20048;-76
2022/02/20 00:31:19;;;;;;;12.30;4.25;;;;;;;4.48;56.24;100572.69;5115610;28;20039;-76
2022/02/20 00:33:48;;;;;;;12.18;4.45;;;;;;;4.48;56.38;100570.91;5115393;28;20537;-76
2022/02/20 00:36:16;;;;;;;11.43;4.20;;;;;;;4.64;55.97;100563.41;5097457;28;20067;-76
2022/02/20 00:38:44;;;;;;;11.05;4.20;;;;;;;4.68;55.74;100558.88;5114970;28;20066;-76
2022/02/20 00:41:14;;;;;;;11.05;4.13;;;;;;;4.64;55.59;100562.53;5115646;28;20392;-76
2022/02/20 00:43:42;;;;;;;10.05;3.92;;;;;;;4.56;56.02;100568.06;5115465;28;20044;-76
2022/02/20 00:46:10;;;;;;;11.50;4.50;;;;;;;4.51;56.06;100562.88;5115120;28;20136;-76
2022/02/20 00:48:38;;;;;;;12.30;4.10;;;;;;;4.57;56.15;100556.56;5115150;28;20488;-77
2022/02/20 00:51:07;;;;;;;10.77;4.40;;;;;;;4.50;56.66;100568.22;5115401;28;20044;-76
2022/02/20 00:53:35;;;;;;;11.10;4.30;;;;;;;4.48;56.59;100557.72;5115337;28;20528;-76
2022/02/20 00:56:07;;;;;;;9.95;4.32;;;;;;;4.47;56.66;100555.13;5114724;28;20054;-74
2022/02/20 00:58:36;;;;;;;13.00;4.47;;;;;;;4.44;56.94;100556.09;5096820;28;20051;-74
2022/02/20 01:01:05;;;;;;;14.88;4.68;;;;;;;4.40;57.28;100546.50;5096841;28;20048;-74
2022/02/20 01:03:33;;;;;;;10.10;4.07;;;;;;;4.28;57.55;100554.81;5114662;28;20043;-74
2022/02/20 01:06:02;;;;;;;13.13;4.55;;;;;;;4.28;58.18;100553.03;5096604;28;20047;-75
2022/02/20 01:08:30;;;;;;;11.32;4.43;;;;;;;4.28;58.26;100557.44;5114528;28;20081;-75
2022/02/20 01:10:58;;;;;;;11.05;4.68;;;;;;;4.23;59.03;100551.41;5114487;28;20122;-75
2022/02/20 01:13:26;;;;;;;11.35;4.70;;;;;;;4.20;58.97;100540.97;5114396;28;20378;-75
2022/02/20 01:15:56;;;;;;;10.32;4.55;;;;;;;4.23;58.68;100554.06;5114342;28;20059;-75
2022/02/20 01:18:24;;;;;;;10.00;4.43;;;;;;;4.21;58.42;100540.03;5114310;28;20078;-75
2022/02/20 01:20:52;;;;;;;10.90;4.65;;;;;;;4.34;58.11;100545.81;5095958;28;20043;-75
2022/02/20 01:23:21;;;;;;;10.13;4.05;;;;;;;4.46;57.21;100543.69;5114333;28;20466;-75
2022/02/20 01:25:50;;;;;;;12.60;4.60;;;;;;;4.43;58.25;100537.63;5096008;28;20071;-78
2022/02/20 01:28:19;;;;;;;10.10;4.07;;;;;;;4.44;57.93;100529.66;5114478;28;20154;-77
2022/02/20 01:30:48;;;;;;;13.18;4.43;;;;;;;4.38;58.29;100534.28;5114144;28;20045;-78
2022/02/20 01:33:18;;;;;;;10.68;4.03;;;;;;;4.35;58.82;100534.38;5095946;28;20050;-77
2022/02/20 01:35:47;;;;;;;9.23;4.20;;;;;;;4.32;58.74;100527.38;5095853;28;20131;-77
2022/02/20 01:38:15;;;;;;;11.30;4.63;;;;;;;4.32;58.83;100528.25;5114004;28;20217;-77
2022/02/20 01:40:44;;;;;;;12.48;4.40;;;;;;;4.28;58.56;100516.06;5113966;28;20093;-77
2022/02/20 01:43:12;;;;;;;10.25;4.03;;;;;;;4.28;59.49;100517.84;5114348;28;20093;-77
2022/02/20 01:45:42;;;;;;;11.90;3.70;;;;;;;4.31;59.78;100518.59;5113816;28;20047;-78
2022/02/20 01:48:10;;;;;;;11.07;3.92;;;;;;;4.31;60.38;100502.75;5114261;28;20047;-77
2022/02/20 01:50:40;;;;;;;11.57;4.22;;;;;;;4.33;60.19;100505.34;5114153;28;20492;-77
2022/02/20 01:53:08;;;;;;;12.13;3.92;;;;;;;4.35;60.50;100500.03;5114071;28;20044;-77
2022/02/20 01:55:36;;;;;;;12.70;3.50;;;;;;;4.35;60.35;100500.03;5114050;28;20035;-77
2022/02/20 01:58:05;;;;;;;9.93;3.55;;;;;;;4.36;60.81;100497.34;5114026;28;20469;-77
2022/02/20 02:00:34;;;;;;;8.88;3.55;;;;;;;4.36;61.86;100499.97;5113979;28;20400;-74
2022/02/20 02:03:02;;;;;;;15.27;5.15;;;;;;;4.35;60.99;100495.63;5113624;28;20051;-73
2022/02/20 02:05:31;;;;;;;12.23;4.20;;;;;;;4.32;60.59;100487.78;5095631;28;20050;-73
2022/02/20 02:08:00;;;;;;;8.32;4.00;;;;;;;4.34;60.06;100491.22;5095309;28;20090;-73
2022/02/20 02:10:29;;;;;;;10.30;4.07;;;;;;;4.52;58.87;100485.38;5113774;28;20485;-77
2022/02/20 02:12:57;;;;;;;11.10;4.47;;;;;;;4.63;58.55;100476.22;5113344;28;20101;-77
2022/02/20 02:15:25;;;;;;;11.93;5.30;;;;;;;4.57;58.61;100475.53;5113585;28;20047;-78
2022/02/20 02:17:54;;;;;;;15.82;6.07;;;;;;;4.67;57.91;100462.03;5113409;28;20135;-78
2022/02/20 02:20:22;;;;;;;14.70;5.63;;;;;;;4.67;58.05;100462.88;5113682;28;20047;-79
2022/02/20 02:22:52;;;;;;;13.35;5.97;;;;;;;4.65;57.63;100458.56;5094684;28;20055;-77
2022/02/20 02:25:21;;;;;;;14.25;6.10;;;;;;;4.64;57.66;100459.50;5113581;28;20058;-77
2022/02/20 02:27:49;;;;;;;13.52;6.20;;;;;;;4.54;57.82;100456.28;5095001;28;20051;-78
2022/02/20 02:30:17;;;;;;;15.85;6.28;;;;;;;4.47;58.46;100450.31;5113368;28;20049;-77
2022/02/20 02:32:45;;;;;;;15.35;6.15;;;;;;;4.54;58.05;100451.88;5094917;28;20138;-78
2022/02/20 02:35:13;;;;;;;15.75;6.68;;;;;;;4.39;58.12;100447.06;5095338;28;20052;-77
2022/02/20 02:37:42;;;;;;;16.42;7.30;;;;;;;4.19;58.85;100449.47;5113558;28;20043;-77
2022/02/20 02:40:12;;;;;;;14.60;6.93;;;;;;;4.10;59.48;100447.97;5113313;28;20090;-77
2022/02/20 02:42:41;;;;;;;16.27;7.18;;;;;;;4.09;59.70;100448.88;5113549;28;20039;-77
2022/02/20 02:45:10;;;;;;;16.70;6.95;;;;;;;4.06;59.94;100445.47;5113795;28;20043;-77
2022/02/20 02:47:38;;;;;;;14.30;6.90;;;;;;;4.06;59.82;100448.97;5113440;28;20047;-76
2022/02/20 02:50:09;;;;;;;15.07;6.55;;;;;;;4.01;59.70;100446.47;5095317;28;20117;-76
2022/02/20 02:52:38;;;;;;;15.80;6.68;;;;;;;3.96;59.94;100442.25;5113043;28;20054;-75
2022/02/20 02:55:07;;;;;;;15.15;6.93;;;;;;;3.93;60.17;100442.31;5094746;28;20043;-75
2022/02/20 02:57:37;;;;;;;17.17;6.88;;;;;;;3.90;60.37;100442.44;5113215;28;20050;-76
2022/02/20 03:00:07;;;;;;;22.08;7.60;;;;;;;3.85;60.50;100450.47;5112691;28;20246;-76
2022/02/20 03:02:35;;;;;;;15.18;6.68;;;;;;;3.76;61.55;100452.50;5113288;28;20047;-76
2022/02/20 03:05:04;;;;;;;17.10;7.22;;;;;;;3.73;61.31;100458.75;5112570;28;20039;-75
2022/02/20 03:07:33;;;;;;;13.93;6.82;;;;;;;3.65;63.11;100464.22;5113245;28;20051;-75
2022/02/20 03:10:01;;;;;;;17.15;7.45;;;;;;;3.41;64.63;100463.16;5112691;28;20127;-75
2022/02/20 03:12:29;;;;;;;17.73;7.38;;;;;;;3.33;65.38;100469.53;5112992;28;20044;-75
2022/02/20 03:14:59;;;;;;;16.67;7.55;;;;;;;3.26;66.38;100466.19;5112250;28;20139;-75
2022/02/20 03:17:28;;;;;;;16.55;7.25;;;;;;;3.25;67.85;100461.84;5113266;28;20392;-75
2022/02/20 03:19:57;;;;;;;16.98;7.43;;;;;;;3.27;67.52;100460.00;5112612;28;20127;-75
2022/02/20 03:22:25;;;;;;;19.67;7.55;;;;;;;3.40;66.25;100458.78;5113131;28;20047;-75
2022/02/20 03:24:53;;;;;;;18.02;8.15;;;;;;;3.39;65.72;100457.06;5112780;28;20040;-75
2022/02/20 03:27:22;;;;;;;18.88;7.95;;;;;;;3.33;67.21;100459.88;5094827;28;20474;-75
2022/02/20 03:29:50;;;;;;;17.35;7.25;;;;;;;3.32;66.73;100444.94;5112669;28;20378;-76
2022/02/20 03:32:20;;;;;;;15.70;7.63;;;;;;;3.38;66.38;100449.22;5113158;28;20046;-75
2022/02/20 03:34:48;;;;;;;15.20;7.10;;;;;;;3.36;66.71;100448.34;5114026;28;20040;-76
2022/02/20 03:37:17;;;;;;;15.15;7.65;;;;;;;3.42;66.20;100446.44;5116406;28;20043;-75
2022/02/20 03:39:45;;;;;;;17.30;7.55;;;;;;;3.45;65.86;100440.19;5116347;28;20039;-74
2022/02/20 03:42:13;;;;;;;15.10;6.85;;;;;;;3.45;65.91;100445.47;5116860;28;20051;-75
2022/02/20 03:44:41;;;;;;;16.95;6.80;;;;;;;3.36;66.63;100440.44;5116779;28;20044;-74
2022/02/20 03:47:09;;;;;;;14.25;6.85;;;;;;;3.41;65.97;100444.69;5098096;28;20047;-75
2022/02/20 03:49:39;;;;;;;14.48;6.57;;;;;;;3.38;66.07;100439.53;5116407;28;20044;-75
2022/02/20 03:52:08;;;;;;;18.40;7.22;;;;;;;3.30;66.40;100441.50;5116200;28;20039;-75
2022/02/20 03:54:36;;;;;;;19.38;7.90;;;;;;;3.06;68.23;100444.78;5116266;28;20050;-76
2022/02/20 03:57:04;;;;;;;14.23;7.50;;;;;;;3.15;67.22;100441.91;5098251;28;20051;-75
2022/02/20 03:59:33;;;;;;;15.10;6.63;;;;;;;2.99;67.98;100448.47;5116419;28;20040;-77
2022/02/20 04:02:01;;;;;;;17.02;7.22;;;;;;;2.79;69.86;100447.22;5115821;28;20085;-77
2022/02/20 04:04:29;;;;;;;15.65;7.28;;;;;;;2.70;71.33;100450.09;5116142;28;20061;-78
2022/02/20 04:06:59;;;;;;;18.50;7.18;;;;;;;2.59;72.61;100446.84;5115837;28;20043;-77
2022/02/20 04:09:27;;;;;;;17.50;7.18;;;;;;;2.49;72.38;100442.69;5116199;28;20377;-77
2022/02/20 04:11:56;;;;;;;14.85;6.63;;;;;;;2.56;72.46;100452.19;5115849;28;20097;-77
2022/02/20 04:14:24;;;;;;;15.98;7.35;;;;;;;2.43;74.13;100445.50;5115822;28;20067;-87
2022/02/20 04:16:53;;;;;;;17.63;7.80;;;;;;;2.42;74.68;100454.31;5115903;28;20062;-88
2022/02/20 04:19:21;;;;;;;15.25;6.95;;;;;;;2.32;74.99;100460.66;5116097;28;20495;-88
2022/02/20 04:21:49;;;;;;;17.20;6.28;;;;;;;2.39;75.33;100470.16;5097733;28;20051;-85
2022/02/20 04:24:19;;;;;;;16.92;7.18;;;;;;;2.30;75.77;100465.97;5118397;28;20100;-78
2022/02/20 04:26:47;;;;;;;17.40;7.13;;;;;;;2.22;77.74;100466.16;5097429;28;20044;-80
2022/02/20 04:29:16;;;;;;;15.57;6.18;;;;;;;2.21;78.37;100461.78;5115601;28;20130;-83
2022/02/20 04:31:44;;;;;;;16.35;6.75;;;;;;;2.19;79.83;100463.56;5116572;28;20047;-89
2022/02/20 04:34:13;;;;;;;17.92;6.75;;;;;;;2.09;81.52;100446.25;5116524;28;20047;-84
2022/02/20 04:36:41;;;;;;;13.95;6.43;;;;;;;2.18;83.98;100445.19;5119563;28;20042;-83
2022/02/20 04:39:10;;;;;;;18.50;6.60;;;;;;;2.23;84.61;100448.59;5114779;28;20051;-83
2022/02/20 04:41:40;;;;;;;14.32;6.63;;;;;;;2.32;85.07;100450.13;5115411;28;20043;-83
2022/02/20 04:44:08;;;;;;;18.25;7.07;;;;;;;2.20;86.44;100440.75;5115130;28;20038;-80
2022/02/20 04:46:36;;;;;;;14.23;6.57;;;;;;;2.17;88.28;100448.72;5114718;28;20044;-80
2022/02/20 04:49:06;;;;;;;15.27;5.95;;;;;;;2.12;88.77;100440.94;5114935;28;20043;-79
2022/02/20 04:51:36;;;;;;;14.52;6.60;;;;;;;2.09;89.18;100451.53;5115297;28;20126;-78
2022/02/20 04:54:04;;;;;;;14.82;6.30;;;;;;;2.05;89.90;100449.88;5096549;28;20051;-79
2022/02/20 04:56:33;;;;;;;16.05;7.05;;;;;;;2.04;90.17;100448.16;5115179;28;20096;-78
2022/02/20 04:59:02;;;;;;;16.80;6.55;;;;;;;2.10;89.13;100453.25;5114485;28;20051;-79
2022/02/20 05:01:30;;;;;;;15.38;7.22;;;;;;;2.11;87.94;100448.84;5115239;28;20044;-79
2022/02/20 05:03:59;;;;;;;19.52;7.57;;;;;;;2.13;87.91;100441.81;5114430;28;20094;-79
2022/02/20 05:06:28;;;;;;;18.10;7.25;;;;;;;2.27;86.95;100452.88;5114736;28;20500;-78
2022/02/20 05:08:56;;;;;;;17.42;7.53;;;;;;;2.17;88.80;100448.72;5114620;28;20047;-79
2022/02/20 05:11:27;;;;;;;14.63;7.03;;;;;;;2.25;88.33;100438.91;5096488;28;20100;-78
2022/02/20 05:13:58;;;;;;;14.02;6.38;;;;;;;2.26;87.51;100441.50;5114365;28;20136;-80
2022/02/20 05:16:30;;;;;;;15.18;7.22;;;;;;;2.25;87.66;100431.00;5115190;28;20051;-79
2022/02/20 05:18:58;;;;;;;17.23;8.30;;;;;;;2.34;87.20;100433.41;5114157;28;20104;-80
2022/02/20 05:21:26;;;;;;;14.85;7.97;;;;;;;2.22;87.89;100442.47;5114745;28;20456;-79
2022/02/20 05:23:55;;;;;;;18.95;8.20;;;;;;;2.11;88.84;100441.81;5114417;28;20476;-81
2022/02/20 05:26:23;;;;;;;19.90;8.07;;;;;;;2.09;89.83;100435.75;5114578;28;20071;-79
2022/02/20 05:28:51;;;;;;;17.42;8.20;;;;;;;1.96;91.08;100434.28;5114254;28;20442;-79
2022/02/20 05:31:20;;;;;;;16.75;8.18;;;;;;;1.93;92.40;100439.59;5096205;28;20073;-79
2022/02/20 05:33:49;;;;;;;21.05;8.73;;;;;;;1.94;95.00;100436.97;5114200;28;20058;-80
2022/02/20 05:36:17;;;;;;;19.85;8.68;;;;;;;1.93;96.18;100440.50;5113812;28;20043;-80
2022/02/20 05:38:46;;;;;;;16.70;8.23;;;;;;;1.94;97.29;100446.63;5114329;28;20047;-79
2022/02/20 05:41:14;;;;;;;20.88;8.63;;;;;;;1.91;97.54;100446.66;5095651;28;20515;-76
2022/02/20 05:43:42;;;;;;;19.20;8.23;;;;;;;1.89;96.64;100443.22;5114396;28;20122;-76
2022/02/20 05:46:10;;;;;;;18.08;8.68;;;;;;;1.84;98.40;100439.84;5113993;28;20118;-76
2022/02/20 05:48:39;;;;;;;17.95;8.35;;;;;;;1.88;100.00;100433.59;5095873;28;20063;-76
2022/02/20 05:51:08;;;;;;;17.10;8.60;;;;;;;1.96;100.00;100426.41;5095554;28;20424;-76
2022/02/20 05:53:37;;;;;;;20.10;7.93;;;;;;;2.00;100.00;100415.75;5114153;28;20096;-76
2022/02/20 05:56:05;;;;;;;16.58;7.57;;;;;;;2.18;100.00;100417.13;5113752;28;20036;-78
2022/02/20 05:58:34;;;;;;;17.75;7.40;;;;;;;2.33;100.00;100410.63;5113374;28;20042;-76
2022/02/20 06:01:02;;;;;;;14.63;6.78;;;;;;;2.37;100.00;100404.38;5113274;28;20045;-76
2022/02/20 06:03:30;;;;;;;14.13;6.50;;;;;;;2.42;100.00;100406.91;5113941;28;20045;-76
2022/02/20 06:05:59;;;;;;;12.82;5.88;;;;;;;2.43;100.00;100406.00;5095352;28;20054;-77
2022/02/20 06:08:28;;;;;;;11.32;6.03;;;;;;;2.53;100.00;100399.63;5113880;28;20130;-76
2022/02/20 06:10:57;;;;;;;14.68;6.72;;;;;;;2.69;100.00;100392.16;5113661;28;20101;-82
2022/02/20 06:13:25;;;;;;;15.90;5.63;;;;;;;2.84;100.00;100397.91;5095564;28;20134;-73
2022/02/20 06:15:53;;;;;;;10.52;6.18;;;;;;;2.90;100.00;100393.41;5114017;28;20055;-73
2022/02/20 06:18:23;;;;;;;13.80;6.53;;;;;;;2.92;100.00;100391.59;5113923;28;20047;-74
2022/02/20 06:20:51;;;;;;;15.20;6.60;;;;;;;3.03;100.00;100394.78;5114055;28;20093;-74
2022/02/20 06:23:22;;;;;;;14.85;6.35;;;;;;;3.04;100.00;100393.88;5095529;28;20051;-75
2022/02/20 06:25:51;;;;;;;13.45;6.03;;;;;;;3.11;100.00;100393.69;5113689;28;20043;-76
2022/02/20 06:28:20;;;;;;;12.98;6.20;;;;;;;3.02;100.00;100387.81;5113172;28;20108;-75
2022/02/20 06:30:48;;;;;;;14.52;6.75;;;;;;;3.04;100.00;100394.75;5113689;28;20449;-75
2022/02/20 06:33:16;;;;;;;12.55;6.15;;;;;;;3.10;100.00;100393.72;5094859;28;20046;-75
2022/02/20 06:35:45;;;;;;;13.57;6.15;;;;;;;3.11;100.00;100398.97;5113564;28;20048;-75
2022/02/20 06:38:13;;;;;;;14.98;6.65;;;;;;;3.23;100.00;100407.44;5113189;28;20067;-74
2022/02/20 06:40:42;;;;;;;15.70;6.90;;;;;;;3.27;100.00;100406.41;5095156;28;20047;-79
2022/02/20 06:43:11;;;;;;;13.77;6.20;;;;;;;3.33;100.00;100416.81;5113113;28;20046;-75
2022/02/20 06:45:40;;;;;;;12.18;6.45;;;;;;;3.43;100.00;100405.09;5113703;28;20092;-75
2022/02/20 06:48:08;;;;;;;11.10;6.32;;;;;;;3.45;100.00;100401.50;5112953;28;20043;-80
2022/02/20 06:50:36;;;;;;;12.10;6.25;;;;;;;3.57;100.00;100391.50;5113228;28;20046;-78
2022/02/20 06:53:05;;;;;;;16.10;6.82;;;;;;;3.69;100.00;100385.88;5113287;28;20433;-78
2022/02/20 06:55:34;;;;;;;16.45;6.30;;;;;;;3.81;100.00;100379.38;5112823;28;20127;-77
2022/02/20 06:58:02;;;;;;;12.52;6.50;;;;;;;3.92;100.00;100383.41;5113249;28;20097;-76
2022/02/20 07:00:32;;;;;;;16.27;6.70;;;;;;;3.98;100.00;100371.81;5094992;28;20051;-72
2022/02/20 07:03:01;;;;;;;13.07;6.30;;;;;;;4.06;100.00;100369.78;5111037;28;20050;-73
2022/02/20 07:05:29;;;;;;;15.73;6.78;;;;;;;4.24;100.00;100365.66;5113540;28;20397;-73
2022/02/20 07:07:59;;;;;;;15.40;6.80;;;;;;;4.20;100.00;100361.41;5113487;28;20050;-74
2022/02/20 07:10:28;;;;;;;15.85;6.43;;;;;;;4.15;100.00;100368.59;5099437;28;20081;-73
2022/02/20 07:12:56;;;;;;;12.38;6.15;;;;;;;4.22;100.00;100359.59;5117231;28;20495;-75
2022/02/20 07:15:25;;;;;;;11.15;5.60;;;;;;;4.28;100.00;100359.41;5116813;28;20047;-74
2022/02/20 07:17:54;;;;;;;10.20;5.47;;;;;;;4.19;100.00;100364.97;5117106;28;20039;-75
2022/02/20 07:20:22;;;;;;;10.70;5.00;;;;;;;4.22;100.00;100370.16;5116560;28;20040;-75
2022/02/20 07:22:51;;;;;;;10.95;4.72;;;;;;;4.20;100.00;100369.34;5098658;28;20100;-74
2022/02/20 07:25:20;;;;;;;10.00;4.63;;;;;;;4.32;100.00;100363.66;5098275;28;20104;-75
2022/02/20 07:27:53;;;;;;;8.85;4.82;;;;;;;4.48;100.00;100367.53;5098525;28;20047;-75
2022/02/20 07:30:23;;;;;;;12.73;4.70;;;;;;;4.62;100.00;100369.69;5116153;28;20054;-76
2022/02/20 07:32:51;;;;;;;8.32;5.00;;;;;;;4.75;100.00;100378.09;5116451;28;20366;-75
2022/02/20 07:35:21;;;;;;;11.63;5.18;;;;;;;4.84;100.00;100364.56;5116186;28;20046;-75
2022/02/20 07:37:49;;;;;;;9.90;4.72;;;;;;;5.02;100.00;100363.91;5116673;28;20408;-75
2022/02/20 07:40:18;;;;;;;10.50;4.47;;;;;;;5.26;100.00;100383.31;5115316;28;20047;-71
2022/02/20 07:42:46;;;;;;;10.07;4.80;;;;;;;5.42;100.00;100383.63;5098209;28;20043;-75
2022/02/20 07:45:14;;;;;;;7.40;4.20;;;;;;;5.64;98.73;100383.66;5116497;28;20553;-74
2022/02/20 07:47:51;;;;;;;10.30;3.75;;;;;;;5.72;98.18;100387.75;5116524;28;20429;-75
2022/02/20 07:50:22;;;;;;;9.00;3.92;;;;;;;5.81;97.47;100380.38;5115453;28;20511;-76
2022/02/20 07:52:51;;;;;;;5.38;2.60;;;;;;;6.02;95.82;100384.88;5116358;28;20422;-76
2022/02/20 07:55:19;;;;;;;5.72;2.30;;;;;;;6.11;94.21;100381.00;5116284;28;20067;-76
2022/02/20 07:57:48;;;;;;;7.30;2.22;;;;;;;6.18;93.88;100387.78;5097983;28;20436;-72
2022/02/20 08:00:19;;;;;;;7.13;2.45;;;;;;;6.30;92.71;100382.84;5116560;28;20039;-72
2022/02/20 08:02:47;;;;;;;7.32;2.22;;;;;;;6.39;90.57;100368.38;5116415;28;20046;-73
2022/02/20 08:05:15;;;;;;;5.43;2.30;;;;;;;6.54;90.41;100374.81;5114830;28;20042;-74
2022/02/20 08:07:45;;;;;;;4.97;2.05;;;;;;;6.60;88.96;100366.63;5112867;28;20040;-69
2022/02/20 08:10:14;;;;;;;5.43;2.28;;;;;;;6.59;88.53;100375.50;5098896;28;20054;-75
2022/02/20 08:12:43;;;;;;;6.55;1.95;;;;;;;6.68;86.49;100396.31;5093572;28;20044;-76
2022/02/20 08:15:11;;;;;;;6.85;2.42;;;;;;;6.68;86.45;100384.84;5096302;28;20488;-75
2022/02/20 08:17:44;;;;;;;7.90;2.50;;;;;;;6.71;86.19;100390.00;5115085;28;20044;-76
2022/02/20 08:20:13;;;;;;;9.27;2.17;;;;;;;6.72;85.93;100402.34;5096196;28;20868;-75
2022/02/20 08:22:42;;;;;;;4.25;1.90;;;;;;;6.74;84.43;100397.81;5096498;28;20051;-76
2022/02/20 08:25:12;;;;;;;7.53;2.20;;;;;;;6.78;84.42;100396.78;5115396;28;20044;-74
2022/02/20 08:27:41;;;;;;;6.18;2.20;;;;;;;6.87;82.80;100391.97;5096473;28;20130;-73
2022/02/20 08:30:12;;;;;;;4.80;2.00;;;;;;;6.98;81.96;100398.59;5115283;28;20035;-72
2022/02/20 08:32:41;;;;;;;4.85;1.95;;;;;;;7.06;81.19;100415.03;5096303;28;20568;-74
2022/02/20 08:35:11;;;;;;;3.38;1.30;;;;;;;6.96;79.16;100400.44;5114765;28;20382;-74
2022/02/20 08:37:43;;;;;;;4.85;1.70;;;;;;;6.81;79.76;100404.59;5115270;28;20043;-72
2022/02/20 08:40:15;;;;;;;4.80;1.77;;;;;;;6.87;79.81;100407.88;5114917;28;20051;-76
2022/02/20 08:42:44;;;;;;;6.45;1.75;;;;;;;6.93;79.58;100411.16;5096874;28;20507;-76
2022/02/20 08:45:13;;;;;;;3.90;1.30;;;;;;;6.89;79.12;100410.44;5115651;28;20473;-76
2022/02/20 08:47:42;;;;;;;5.82;1.33;;;;;;;6.97;78.62;100418.94;5114930;28;20065;-73
2022/02/20 08:50:13;;;;;;;3.58;1.58;;;;;;;6.97;77.40;100431.34;5114799;28;20036;-71
2022/02/20 08:52:45;;;;;;;5.57;1.75;;;;;;;7.07;77.67;100437.97;5096014;28;20130;-73
2022/02/20 08:55:15;;;;;;;5.47;1.60;;;;;;;7.04;76.88;100446.91;5114965;28;20051;-72
2022/02/20 08:57:44;;;;;;;5.20;2.13;;;;;;;7.17;76.90;100452.56;5096065;28;20047;-75
2022/02/20 09:00:14;;;;;;;5.85;2.05;;;;;;;7.12;77.66;100451.91;5096342;28;20122;-74
2022/02/20 09:02:43;;;;;;;4.75;1.52;;;;;;;6.99;77.29;100450.69;5114605;28;20040;-75
2022/02/20 09:05:13;;;;;;;3.45;1.50;;;;;;;7.02;77.27;100458.53;5114810;28;20036;-74
2022/02/20 09:07:41;;;;;;;4.90;1.95;;;;;;;7.18;76.90;100465.78;5113658;28;20048;-74
2022/02/20 09:10:09;;;;;;;4.82;1.45;;;;;;;7.02;76.61;100461.16;5114205;28;20058;-76
2022/02/20 09:12:41;;;;;;;3.67;1.60;;;;;;;6.95;76.92;100459.69;5113031;28;20542;-73
2022/02/20 09:15:11;;;;;;;5.32;1.90;;;;;;;7.09;76.33;100460.00;5114247;28;20055;-72
2022/02/20 09:17:40;;;;;;;7.78;2.05;;;;;;;7.11;76.58;100466.09;5113210;28;20092;-72
2022/02/20 09:20:10;;;;;;;4.72;1.80;;;;;;;7.23;76.30;100476.16;5113225;28;20090;-70
2022/02/20 09:22:41;;;;;;;6.40;2.20;;;;;;;7.36;75.88;100472.06;5112720;28;20101;-70
2022/02/20 09:25:11;;;;;;;3.67;1.88;;;;;;;7.46;75.42;100481.38;5112951;28;20449;-72
2022/02/20 09:27:42;;;;;;;5.22;2.05;;;;;;;7.42;76.14;100474.44;5113459;28;20071;-74
2022/02/20 09:30:12;;;;;;;3.53;1.88;;;;;;;7.32;77.45;100472.25;5112756;28;20092;-72
2022/02/20 09:32:43;;;;;;;3.65;1.90;;;;;;;7.38;77.46;100467.56;5114771;28;20044;-73
2022/02/20 09:35:12;;;;;;;5.95;1.95;;;;;;;7.34;78.05;100460.69;5112974;28;20069;-72
2022/02/20 09:37:41;;;;;;;5.07;2.00;;;;;;;7.49;78.27;100453.81;5113560;27;20122;-74
2022/02/20 09:40:10;;;;;;;4.70;1.95;;;;;;;7.61;78.72;100457.72;5113807;28;20046;-79
2022/02/20 09:42:41;;;;;;;4.05;1.80;;;;;;;7.67;79.49;100468.06;5112306;28;20043;-75
2022/02/20 09:45:09;;;;;;;4.03;1.67;;;;;;;7.71;79.93;100448.41;5113287;28;20062;-75
2022/02/20 09:47:39;;;;;;;5.13;1.70;;;;;;;7.68;80.67;100453.84;5112983;28;20039;-77
2022/02/20 09:50:09;;;;;;;4.53;1.67;;;;;;;7.66;81.13;100453.06;5111987;28;20656;-77
2022/02/20 09:52:37;;;;;;;3.40;1.40;;;;;;;7.58;82.07;100456.06;5111851;28;20074;-77
2022/02/20 09:55:07;;;;;;;4.45;1.77;;;;;;;7.63;82.56;100455.88;5113306;28;20050;-79
2022/02/20 09:57:38;;;;;;;4.30;1.67;;;;;;;7.66;83.18;100448.63;5113177;28;20088;-79
2022/02/20 10:00:09;;;;;;;3.05;1.20;;;;;;;7.69;83.06;100439.66;5113506;28;20061;-78
2022/02/20 10:02:40;;;;;;;2.45;1.52;;;;;;;7.75;83.57;100456.19;5111950;28;20516;-79
2022/02/20 10:05:16;;;;;;;4.50;1.90;;;;;;;7.76;83.53;100449.06;5113099;28;20050;-78
2022/02/20 10:07:47;;;;;;;3.47;1.90;;;;;;;7.87;83.03;100444.13;5112480;28;20042;-79
2022/02/20 10:10:17;;;;;;;3.33;1.83;;;;;;;7.85;83.20;100448.66;5095111;28;20051;-76
2022/02/20 10:12:57;;;;;;;4.05;2.20;;;;;;;7.92;83.32;100439.47;5113317;28;20035;-78
2022/02/20 10:15:30;;;;;;;3.42;2.10;;;;;;;7.77;83.52;100415.41;5113143;28;20084;-73
2022/02/20 10:18:00;;;;;;;3.08;1.63;;;;;;;7.72;84.18;100412.94;5095569;28;20067;-73
2022/02/20 10:20:29;;;;;;;4.22;2.50;;;;;;;7.77;85.03;100420.72;5095753;28;20066;-73
2022/02/20 10:22:58;;;;;;;5.20;2.00;;;;;;;7.77;84.45;100405.66;5095448;28;20546;-72
2022/02/20 10:25:26;;;;;;;4.35;1.92;;;;;;;7.79;83.81;100403.78;5095448;28;20108;-73
2022/02/20 10:27:56;;;;;;;5.40;2.33;;;;;;;7.90;83.75;100403.28;5095265;28;20055;-74
2022/02/20 10:30:27;;;;;;;3.70;1.90;;;;;;;7.97;82.12;100396.75;5095478;28;20058;-72
2022/02/20 10:33:04;;;;;;;3.33;1.77;;;;;;;8.03;82.35;100402.66;5094574;28;20105;-74
2022/02/20 10:35:34;;;;;;;3.35;1.75;;;;;;;8.12;81.60;100401.34;5112626;28;20036;-74
2022/02/20 10:38:11;;;;;;;4.30;1.92;;;;;;;8.26;81.25;100392.69;5112002;28;20067;-74
2022/02/20 10:40:41;;;;;;;6.03;2.20;;;;;;;8.37;79.68;100390.41;5094330;28;20054;-81
2022/02/20 10:43:25;;;;;;;6.30;2.10;;;;;;;8.50;79.71;100396.00;5095198;28;20058;-74
2022/02/20 10:46:08;;;;;;;3.45;1.75;;;;;;;8.53;78.57;100391.38;5117260;28;20444;-75
2022/02/20 10:48:44;;;;;;;2.88;1.52;;;;;;;8.59;76.79;100391.09;5117465;28;20036;-74
2022/02/20 10:51:14;;;;;;;3.95;1.98;;;;;;;8.64;76.19;100396.16;5117187;28;20040;-76
2022/02/20 10:53:44;;;;;;;3.92;1.65;;;;;;;8.71;75.63;100392.28;5098627;28;20480;-74
2022/02/20 10:56:12;;;;;;;4.45;1.70;;;;;;;8.78;75.11;100384.81;5117042;28;20032;-74
2022/02/20 10:58:43;;;;;;;3.03;1.80;;;;;;;8.73;75.42;100393.06;5116612;28;20039;-78
2022/02/20 11:01:22;;;;;;;5.75;1.77;;;;;;;8.76;75.01;100389.38;5098522;28;20044;-74
2022/02/20 11:03:52;;;;;;;2.55;1.67;;;;;;;8.84;74.33;100380.06;5116465;28;20039;-76
2022/02/20 11:06:21;;;;;;;2.92;1.70;;;;;;;8.83;74.51;100386.34;5116377;28;20434;-74
2022/02/20 11:08:49;;;;;;;4.78;2.08;;;;;;;8.84;74.87;100381.88;5116052;28;20126;-74
2022/02/20 11:14:09;;;;;;;3.72;1.73;;;;;;;8.95;74.13;100376.84;5116522;28;20036;-74
2022/02/20 11:16:42;;;;;;;3.85;1.70;;;;;;;8.87;74.70;100357.75;5094932;28;20091;-74
2022/02/20 11:19:13;;;;;;;4.20;1.90;;;;;;;8.82;74.91;100370.44;5095829;28;20075;-74
2022/02/20 11:21:43;;;;;;;5.00;1.77;;;;;;;8.98;73.52;100368.75;5096295;28;20607;-74
2022/02/20 11:24:13;;;;;;;3.53;2.00;;;;;;;9.03;72.55;100358.69;5094588;28;20055;-72
2022/02/20 11:26:44;;;;;;;3.42;1.77;;;;;;;9.06;72.30;100347.03;5095998;28;20442;-80
2022/02/20 11:29:13;;;;;;;3.58;2.05;;;;;;;9.00;72.68;100352.69;5094424;28;20453;-79
2022/02/20 11:31:45;;;;;;;4.38;1.88;;;;;;;9.04;72.59;100349.78;5095542;28;20064;-80
2022/02/20 11:34:15;;;;;;;4.03;1.90;;;;;;;9.18;71.79;100349.94;5095964;28;20040;-80
2022/02/20 11:36:51;;;;;;;3.63;1.80;;;;;;;9.32;71.07;100343.84;5094082;28;20048;-82
2022/02/20 11:39:20;;;;;;;5.32;1.80;;;;;;;9.42;69.88;100333.56;5094364;28;20052;-79